Time;durP1;ratioP1;P1;durP2;ratioP2;P2;SDS_P1;SDS_P2;PMS_P1;PMS_P2;Temp;Humidity;BMP_temperature;BMP_pressure;BME280_temperature;BME280_humidity;BME280_pressure;Samples;Min_cycle;Max_cycle;Signal;HPM_P1;HPM_P2
2023/11/21 00:02:27;;;;;;;12.43;4.90;;;;;;;-141.23;100.00;62281.09;5025282;28;20205;-70
2023/11/21 00:04:57;;;;;;;7.47;4.80;;;;;;;-141.23;100.00;62281.09;5027201;28;20660;-70
2023/11/21 00:07:23;;;;;;;6.00;4.40;;;;;;;-141.23;100.00;62281.09;4994455;28;20085;-69
2023/11/21 00:09:50;;;;;;;10.03;4.87;;;;;;;-141.23;100.00;62281.09;5014344;28;20049;-69
2023/11/21 00:12:17;;;;;;;9.30;4.80;;;;;;;-141.23;100.00;62281.09;5014904;28;20064;-71
2023/11/21 00:14:44;;;;;;;10.23;5.13;;;;;;;-141.23;100.00;62281.09;5031426;28;20393;-71
2023/11/21 00:17:10;;;;;;;10.67;5.23;;;;;;;-141.23;100.00;62281.09;5031427;28;20049;-71
2023/11/21 00:19:37;;;;;;;9.17;5.13;;;;;;;-141.23;100.00;62281.09;5014592;28;20053;-71
2023/11/21 00:22:03;;;;;;;7.50;4.57;;;;;;;-141.23;100.00;62281.09;5034650;28;20053;-71
2023/11/21 00:24:29;;;;;;;13.00;4.77;;;;;;;-141.23;100.00;62281.09;5034334;28;20197;-71
2023/11/21 00:26:54;;;;;;;10.97;4.73;;;;;;;-141.23;100.00;62281.09;5034025;28;20061;-71
2023/11/21 00:29:20;;;;;;;7.07;4.70;;;;;;;-141.23;100.00;62281.09;5051007;28;20053;-71
2023/11/21 00:31:46;;;;;;;9.27;4.30;;;;;;;-141.23;100.00;62281.09;5034379;28;20044;-71
2023/11/21 00:34:12;;;;;;;6.47;4.17;;;;;;;-141.23;100.00;62281.09;5067589;28;20052;-71
2023/11/21 00:36:38;;;;;;;11.33;4.80;;;;;;;-141.23;100.00;62281.09;5056692;28;20043;-71
2023/11/21 00:39:05;;;;;;;7.33;4.20;;;;;;;-141.23;100.00;62281.09;5077809;28;20062;-72
2023/11/21 00:41:32;;;;;;;6.97;4.40;;;;;;;-141.23;100.00;62281.09;5109182;28;20070;-72
2023/11/21 00:43:59;;;;;;;8.33;4.80;;;;;;;-141.23;100.00;62281.09;5060328;28;20039;-71
2023/11/21 00:46:28;;;;;;;9.07;3.83;;;;;;;-141.23;100.00;62281.09;5044602;28;20051;-71
2023/11/21 00:48:57;;;;;;;8.18;3.97;;;;;;;-141.23;100.00;62281.09;5045099;28;20039;-71
2023/11/21 00:51:23;;;;;;;8.27;4.30;;;;;;;-141.23;100.00;62281.09;5077129;28;20055;-71
2023/11/21 00:53:48;;;;;;;7.80;4.20;;;;;;;-141.23;100.00;62281.09;5060412;28;20047;-71
2023/11/21 00:56:14;;;;;;;6.83;4.20;;;;;;;-141.23;100.00;62281.09;5060070;28;20044;-71
2023/11/21 00:58:46;;;;;;;7.07;4.20;;;;;;;-141.23;100.00;62281.09;5060802;28;20058;-71
2023/11/21 01:01:15;;;;;;;7.30;3.90;;;;;;;-141.23;100.00;62281.09;5060360;28;20055;-71
2023/11/21 01:03:41;;;;;;;7.07;4.13;;;;;;;-141.23;100.00;62281.09;5077041;28;20115;-71
2023/11/21 01:06:07;;;;;;;6.93;4.30;;;;;;;-141.23;100.00;62281.09;5077047;28;20142;-72
2023/11/21 01:08:33;;;;;;;8.67;4.23;;;;;;;-141.23;100.00;62281.09;5077269;28;20047;-72
2023/11/21 01:10:59;;;;;;;7.47;4.17;;;;;;;-141.23;100.00;62281.09;5017094;28;20511;-70
2023/11/21 01:13:28;;;;;;;6.30;4.20;;;;;;;-141.23;100.00;62281.09;5055531;28;20051;-71
2023/11/21 01:15:56;;;;;;;6.00;4.17;;;;;;;-141.23;100.00;62281.09;5057263;28;20062;-70
2023/11/21 01:18:22;;;;;;;5.57;3.50;;;;;;;-141.23;100.00;62281.09;5056783;28;20463;-70
2023/11/21 01:20:49;;;;;;;7.17;3.97;;;;;;;-141.23;100.00;62281.09;5073604;28;20188;-70
2023/11/21 01:23:15;;;;;;;7.53;4.40;;;;;;;-141.23;100.00;62281.09;5059915;28;20108;-70
2023/11/21 01:25:41;;;;;;;6.83;4.10;;;;;;;-141.23;100.00;62281.09;5076638;28;20055;-70
2023/11/21 01:28:09;;;;;;;6.90;3.83;;;;;;;-141.23;100.00;62281.09;5076575;28;20054;-69
2023/11/21 01:30:35;;;;;;;6.20;3.73;;;;;;;-141.23;100.00;62281.09;5060057;28;20043;-70
2023/11/21 01:33:02;;;;;;;4.97;3.70;;;;;;;-141.23;100.00;62281.09;5060081;28;20044;-71
2023/11/21 01:35:30;;;;;;;5.57;3.87;;;;;;;-141.23;100.00;62281.09;5060431;28;20052;-72
2023/11/21 01:37:58;;;;;;;4.83;3.73;;;;;;;-141.23;100.00;62281.09;5060673;28;20035;-70
2023/11/21 01:40:24;;;;;;;4.93;3.60;;;;;;;-141.23;100.00;62281.09;5059940;28;20510;-70
2023/11/21 01:42:50;;;;;;;5.17;3.40;;;;;;;-141.23;100.00;62281.09;5059663;28;20474;-71
2023/11/21 01:45:16;;;;;;;4.77;3.43;;;;;;;-141.23;100.00;62281.09;5076372;28;20043;-70
2023/11/21 01:47:42;;;;;;;10.03;3.97;;;;;;;-141.23;100.00;62281.09;5064341;27;20062;-71
2023/11/21 01:50:12;;;;;;;10.43;3.87;;;;;;;-141.23;100.00;62281.09;5081006;27;20060;-71
2023/11/21 01:52:39;;;;;;;8.50;4.00;;;;;;;-141.23;100.00;62281.09;5097974;27;20043;-72
2023/11/21 01:55:06;;;;;;;4.30;3.53;;;;;;;-141.23;100.00;62281.09;5081135;27;20039;-72
2023/11/21 01:57:33;;;;;;;11.20;3.83;;;;;;;-141.23;100.00;62281.09;5114933;27;20054;-71
2023/11/21 02:00:01;;;;;;;6.07;3.40;;;;;;;-141.23;100.00;62281.09;5097737;27;20039;-70
2023/11/21 02:02:29;;;;;;;4.33;3.00;;;;;;;-141.23;100.00;62281.09;5098200;27;20402;-70
2023/11/21 02:04:55;;;;;;;6.57;4.00;;;;;;;-141.23;100.00;62281.09;5097511;27;20057;-69
2023/11/21 02:07:23;;;;;;;5.27;3.57;;;;;;;-141.23;100.00;62281.09;5097589;27;20093;-70
2023/11/21 02:09:51;;;;;;;4.80;3.47;;;;;;;-141.23;100.00;62281.09;5039896;28;20179;-70
2023/11/21 02:12:17;;;;;;;6.93;3.70;;;;;;;-141.23;100.00;62281.09;5056311;28;20040;-71
2023/11/21 02:14:45;;;;;;;5.90;3.43;;;;;;;-141.23;100.00;62281.09;5039611;28;20059;-71
2023/11/21 02:17:13;;;;;;;5.63;3.17;;;;;;;-141.23;100.00;62281.09;5056064;28;20113;-71
2023/11/21 02:19:39;;;;;;;9.53;3.80;;;;;;;-141.23;100.00;62281.09;5056046;28;20047;-71
2023/11/21 02:22:30;;;;;;;7.20;3.53;;;;;;;-141.23;100.00;62281.09;5061052;28;20100;-71
2023/11/21 02:24:57;;;;;;;7.25;3.50;;;;;;;-141.23;100.00;62281.09;5074493;28;20059;-71
2023/11/21 02:27:24;;;;;;;6.23;3.20;;;;;;;-141.23;100.00;62281.09;5075986;28;20531;-71
2023/11/21 02:29:50;;;;;;;5.13;3.00;;;;;;;-141.23;100.00;62281.09;5075892;28;20055;-70
2023/11/21 02:32:22;;;;;;;4.73;3.33;;;;;;;-141.23;100.00;62281.09;5071765;28;20056;-71
2023/11/21 02:34:49;;;;;;;5.60;3.23;;;;;;;-141.23;100.00;62281.09;5071092;28;20051;-71
2023/11/21 02:37:15;;;;;;;6.00;3.97;;;;;;;-141.23;100.00;62281.09;5089191;28;20086;-70
2023/11/21 02:39:41;;;;;;;7.53;3.50;;;;;;;-141.23;100.00;62281.09;5073761;28;20507;-71
2023/11/21 02:42:07;;;;;;;4.83;3.30;;;;;;;-141.23;100.00;62281.09;5062676;28;20064;-73
2023/11/21 02:44:33;;;;;;;12.93;3.50;;;;;;;-141.23;100.00;62281.09;5062780;28;20059;-72
2023/11/21 02:47:00;;;;;;;9.10;3.70;;;;;;;-141.23;100.00;62281.09;5062503;28;20134;-72
2023/11/21 02:49:29;;;;;;;4.03;3.20;;;;;;;-141.23;100.00;62281.09;5062624;28;20038;-70
2023/11/21 02:51:55;;;;;;;3.93;3.30;;;;;;;-141.23;100.00;62281.09;5096268;28;20390;-70
2023/11/21 02:54:24;;;;;;;5.60;3.80;;;;;;;-141.23;100.00;62281.09;5072251;28;20040;-70
2023/11/21 02:56:49;;;;;;;7.30;3.47;;;;;;;-141.23;100.00;62281.09;5039068;28;20079;-69
2023/11/21 02:59:16;;;;;;;5.53;3.30;;;;;;;-141.23;100.00;62281.09;5038957;28;20079;-70
2023/11/21 03:01:41;;;;;;;7.53;3.63;;;;;;;-141.23;100.00;62281.09;5038704;28;20040;-70
2023/11/21 03:04:09;;;;;;;6.13;3.67;;;;;;;-141.23;100.00;62281.09;5038832;28;20056;-71
2023/11/21 03:06:35;;;;;;;8.97;3.30;;;;;;;-141.23;100.00;62281.09;5039060;28;20060;-70
2023/11/21 03:09:00;;;;;;;5.07;3.07;;;;;;;-141.23;100.00;62281.09;5058583;28;20145;-70
2023/11/21 03:11:27;;;;;;;4.60;3.27;;;;;;;-141.23;100.00;62281.09;5059079;28;20031;-70
2023/11/21 03:13:54;;;;;;;8.37;3.37;;;;;;;-141.23;100.00;62281.09;5092408;28;20476;-70
2023/11/21 03:16:21;;;;;;;5.17;3.50;;;;;;;-141.23;100.00;62281.09;5059147;28;20146;-70
2023/11/21 03:18:47;;;;;;;8.70;3.17;;;;;;;-141.23;100.00;62281.09;5042160;28;20043;-70
2023/11/21 03:21:13;;;;;;;3.90;2.90;;;;;;;-141.23;100.00;62281.09;5041872;28;20073;-70
2023/11/21 03:23:39;;;;;;;4.53;3.27;;;;;;;-141.23;100.00;62281.09;5058706;28;20078;-70
2023/11/21 03:26:08;;;;;;;5.00;3.40;;;;;;;-141.23;100.00;62281.09;5105914;27;20095;-70
2023/11/21 03:28:35;;;;;;;7.82;3.22;;;;;;;-141.23;100.00;62281.09;5092958;28;20043;-70
2023/11/21 03:31:02;;;;;;;5.27;3.37;;;;;;;-141.23;100.00;62281.09;5075385;28;20043;-69
2023/11/21 03:33:29;;;;;;;7.20;3.27;;;;;;;-141.23;100.00;62281.09;5092206;28;20044;-70
2023/11/21 03:35:56;;;;;;;7.37;3.80;;;;;;;-141.23;100.00;62281.09;5091910;28;20364;-70
2023/11/21 03:38:23;;;;;;;9.53;3.20;;;;;;;-141.23;100.00;62281.09;5075209;28;20138;-69
2023/11/21 03:40:50;;;;;;;6.73;3.23;;;;;;;-141.23;100.00;62281.09;5075310;28;20055;-69
2023/11/21 03:43:16;;;;;;;3.97;3.03;;;;;;;-141.23;100.00;62281.09;5059702;28;20353;-71
2023/11/21 03:45:42;;;;;;;4.77;3.43;;;;;;;-141.23;100.00;62281.09;5045176;28;20081;-70
2023/11/21 03:48:08;;;;;;;4.87;2.97;;;;;;;-141.23;100.00;62281.09;5061849;28;20047;-71
2023/11/21 03:50:38;;;;;;;5.55;3.17;;;;;;;-141.23;100.00;62281.09;5063023;28;20078;-71
2023/11/21 03:53:05;;;;;;;3.93;3.50;;;;;;;-141.23;100.00;62281.09;5045900;28;20079;-70
2023/11/21 03:55:31;;;;;;;7.60;3.00;;;;;;;-141.23;100.00;62281.09;5045012;28;20079;-70
2023/11/21 03:57:58;;;;;;;4.60;2.83;;;;;;;-141.23;100.00;62281.09;5061994;28;20876;-70
2023/11/21 04:00:26;;;;;;;5.60;2.93;;;;;;;-141.23;100.00;62281.09;5061761;28;20534;-70
2023/11/21 04:02:53;;;;;;;10.70;3.30;;;;;;;-141.23;100.00;62281.09;5078290;28;20142;-70
2023/11/21 04:05:21;;;;;;;5.13;3.50;;;;;;;-141.23;100.00;62281.09;5095039;28;20046;-70
2023/11/21 04:07:51;;;;;;;5.00;3.10;;;;;;;-141.23;100.00;62281.09;5078129;28;20158;-70
2023/11/21 04:10:18;;;;;;;6.55;3.20;;;;;;;-141.23;100.00;62281.09;5095210;28;20079;-70
2023/11/21 04:12:45;;;;;;;5.20;2.97;;;;;;;-141.23;100.00;62281.09;5113366;27;20057;-70
2023/11/21 04:15:13;;;;;;;6.47;3.07;;;;;;;-141.23;100.00;62281.09;5103389;27;20026;-71
2023/11/21 04:17:39;;;;;;;10.67;3.40;;;;;;;-141.23;100.00;62281.09;5120115;27;20169;-71
2023/11/21 04:20:09;;;;;;;4.47;3.33;;;;;;;-141.23;100.00;62281.09;5154679;27;20046;-71
2023/11/21 04:22:43;;;;;;;4.32;3.03;;;;;;;-141.23;100.00;62281.09;5137861;27;20042;-69
2023/11/21 04:25:15;;;;;;;4.90;2.83;;;;;;;-141.23;100.00;62281.09;5103598;27;20047;-71
2023/11/21 04:27:43;;;;;;;5.33;3.70;;;;;;;-141.23;100.00;62281.09;5153901;27;20047;-71
2023/11/21 04:30:13;;;;;;;5.37;3.23;;;;;;;-141.23;100.00;62281.09;5154099;27;20062;-71
2023/11/21 04:32:40;;;;;;;6.47;3.53;;;;;;;-141.23;100.00;62281.09;5119680;27;20046;-71
2023/11/21 04:35:06;;;;;;;7.53;3.50;;;;;;;-141.23;100.00;62281.09;5077921;28;20043;-70
2023/11/21 04:37:32;;;;;;;4.37;3.60;;;;;;;-141.23;100.00;62281.09;5044493;28;20058;-69
2023/11/21 04:40:03;;;;;;;5.03;2.87;;;;;;;-141.23;100.00;62281.09;5094895;28;20143;-70
2023/11/21 04:42:34;;;;;;;7.57;3.40;;;;;;;-141.23;100.00;62281.09;5061873;28;20123;-70
2023/11/21 04:45:01;;;;;;;6.70;3.40;;;;;;;-141.23;100.00;62281.09;5044361;28;20461;-70
2023/11/21 04:47:29;;;;;;;4.53;3.27;;;;;;;-141.23;100.00;62281.09;5045248;28;20655;-70
2023/11/21 04:49:55;;;;;;;4.93;3.17;;;;;;;-141.23;100.00;62281.09;5094182;28;20047;-70
2023/11/21 04:52:21;;;;;;;11.97;3.63;;;;;;;-141.23;100.00;62281.09;5060647;28;20410;-70
2023/11/21 04:54:48;;;;;;;6.70;3.23;;;;;;;-141.23;100.00;62281.09;5043673;28;20051;-70
2023/11/21 04:57:15;;;;;;;10.70;3.60;;;;;;;-141.23;100.00;62281.09;5060729;28;20568;-67
2023/11/21 04:59:43;;;;;;;6.67;3.50;;;;;;;-141.23;100.00;62281.09;5043867;28;20082;-70
2023/11/21 05:02:09;;;;;;;6.10;3.80;;;;;;;-141.23;100.00;62281.09;5061230;28;20138;-69
2023/11/21 05:04:34;;;;;;;6.13;3.63;;;;;;;-141.23;100.00;62281.09;5044526;28;20134;-70
2023/11/21 05:07:01;;;;;;;4.13;3.27;;;;;;;-141.23;100.00;62281.09;5112953;27;20397;-70
2023/11/21 05:09:31;;;;;;;4.10;3.20;;;;;;;-141.23;100.00;62281.09;5102313;27;20489;-71
2023/11/21 05:11:59;;;;;;;5.53;3.20;;;;;;;-141.23;100.00;62281.09;5073721;28;20056;-71
2023/11/21 05:14:27;;;;;;;6.00;3.70;;;;;;;-141.23;100.00;62281.09;5024778;28;20503;-70
2023/11/21 05:16:53;;;;;;;5.10;3.17;;;;;;;-141.23;100.00;62281.09;5058037;28;20127;-73
2023/11/21 05:19:21;;;;;;;10.40;3.60;;;;;;;-141.23;100.00;62281.09;4998477;28;20054;-71
2023/11/21 05:21:49;;;;;;;7.20;3.20;;;;;;;-141.23;100.00;62281.09;4982446;28;20045;-71
2023/11/21 05:24:15;;;;;;;4.47;3.33;;;;;;;-141.23;100.00;62281.09;4978016;28;20057;-71
2023/11/21 05:26:41;;;;;;;4.47;3.43;;;;;;;-141.23;100.00;62281.09;4994158;28;20461;-71
2023/11/21 05:29:07;;;;;;;4.60;3.40;;;;;;;-141.23;100.00;62281.09;4994391;28;20054;-71
2023/11/21 05:31:34;;;;;;;6.47;3.60;;;;;;;-141.23;100.00;62281.09;4977957;28;20046;-70
2023/11/21 05:33:59;;;;;;;4.93;3.57;;;;;;;-141.23;100.00;62281.09;4977260;28;20056;-69
2023/11/21 05:36:25;;;;;;;5.10;3.73;;;;;;;-141.23;100.00;62281.09;4988485;28;20103;-73
2023/11/21 05:38:54;;;;;;;13.23;4.10;;;;;;;-141.23;100.00;62281.09;4972579;28;20108;-71
2023/11/21 05:41:19;;;;;;;4.60;3.47;;;;;;;-141.23;100.00;62281.09;4958027;28;20152;-74
2023/11/21 05:43:45;;;;;;;7.30;3.60;;;;;;;-141.23;100.00;62281.09;4974045;28;20141;-73
2023/11/21 05:46:11;;;;;;;7.30;3.63;;;;;;;-141.23;100.00;62281.09;4974138;28;20477;-72
2023/11/21 05:48:37;;;;;;;8.43;3.90;;;;;;;-141.23;100.00;62281.09;4974675;28;20081;-72
2023/11/21 05:51:08;;;;;;;4.57;3.67;;;;;;;-141.23;100.00;62281.09;4983385;28;20047;-71
2023/11/21 05:53:34;;;;;;;4.38;3.63;;;;;;;-141.23;100.00;62281.09;4935379;29;20093;-71
2023/11/21 05:56:00;;;;;;;6.70;3.70;;;;;;;-141.23;100.00;62281.09;4937823;28;20052;-70
2023/11/21 05:58:26;;;;;;;5.93;3.90;;;;;;;-141.23;100.00;62281.09;4953831;28;20119;-73
2023/11/21 06:00:53;;;;;;;5.83;3.57;;;;;;;-141.23;100.00;62281.09;4976962;28;20058;-75
2023/11/21 06:03:18;;;;;;;4.53;3.50;;;;;;;-141.23;100.00;62281.09;4993127;28;20579;-73
2023/11/21 06:05:46;;;;;;;7.83;4.20;;;;;;;-141.23;100.00;62281.09;4960632;28;20057;-71
2023/11/21 06:08:12;;;;;;;10.80;3.67;;;;;;;-141.23;100.00;62281.09;4979939;28;20050;-71
2023/11/21 06:10:39;;;;;;;7.97;3.77;;;;;;;-141.23;100.00;62281.09;4958120;28;20140;-73
2023/11/21 06:13:07;;;;;;;12.60;3.30;;;;;;;-141.23;100.00;62281.09;4970145;28;20054;-73
2023/11/21 06:15:35;;;;;;;11.43;4.10;;;;;;;-141.23;100.00;62281.09;4960630;28;20088;-71
2023/11/21 06:18:01;;;;;;;4.70;3.37;;;;;;;-141.23;100.00;62281.09;5009868;28;20061;-73
2023/11/21 06:20:27;;;;;;;10.23;3.90;;;;;;;-141.23;100.00;62281.09;5009713;28;20070;-72
2023/11/21 06:22:55;;;;;;;16.37;4.40;;;;;;;-141.23;100.00;62281.09;4996295;28;20140;-72
2023/11/21 06:25:21;;;;;;;7.93;4.30;;;;;;;-141.23;100.00;62281.09;5012798;28;20149;-73
2023/11/21 06:27:51;;;;;;;6.07;3.90;;;;;;;-141.23;100.00;62281.09;5028444;28;20064;-70
2023/11/21 06:30:19;;;;;;;6.37;3.67;;;;;;;-141.23;100.00;62281.09;5028020;28;20131;-73
2023/11/21 06:32:45;;;;;;;7.73;3.90;;;;;;;-141.23;100.00;62281.09;5012387;28;20081;-71
2023/11/21 06:35:13;;;;;;;5.17;3.30;;;;;;;-141.23;100.00;62281.09;5015238;28;20045;-72
2023/11/21 06:37:40;;;;;;;14.53;4.20;;;;;;;-141.23;100.00;62281.09;5014025;28;20124;-70
2023/11/21 06:40:09;;;;;;;10.73;4.03;;;;;;;-141.23;100.00;62281.09;4969904;28;20109;-70
2023/11/21 06:42:37;;;;;;;6.80;3.97;;;;;;;-141.23;100.00;62281.09;4968088;28;20503;-70
2023/11/21 06:45:04;;;;;;;10.97;5.23;;;;;;;-141.23;100.00;62281.09;4989471;28;20126;-71
2023/11/21 06:47:34;;;;;;;7.35;4.05;;;;;;;-141.23;100.00;62281.09;4988544;28;20048;-70
2023/11/21 06:50:00;;;;;;;7.67;3.90;;;;;;;-141.23;100.00;62281.09;4997588;28;20107;-71
2023/11/21 06:52:26;;;;;;;7.67;4.20;;;;;;;-141.23;100.00;62281.09;5039483;28;20052;-69
2023/11/21 06:54:52;;;;;;;5.87;4.10;;;;;;;-141.23;100.00;62281.09;5055749;28;20403;-77
2023/11/21 06:57:18;;;;;;;9.07;3.87;;;;;;;-141.23;100.00;62281.09;5039587;28;20052;-75
2023/11/21 06:59:44;;;;;;;13.53;5.07;;;;;;;-141.23;100.00;62281.09;5077388;28;20036;-75
2023/11/21 07:02:10;;;;;;;5.60;3.70;;;;;;;-141.23;100.00;62281.09;5063584;28;20403;-72
2023/11/21 07:04:37;;;;;;;13.23;3.80;;;;;;;-141.23;100.00;62281.09;5053691;28;20052;-71
2023/11/21 07:07:03;;;;;;;6.47;3.70;;;;;;;-141.23;100.00;62281.09;5035845;28;20056;-71
2023/11/21 07:09:31;;;;;;;7.30;4.10;;;;;;;-141.23;100.00;62281.09;5003220;28;20514;-71
2023/11/21 07:11:57;;;;;;;8.67;4.20;;;;;;;-141.23;100.00;62281.09;5035421;28;20488;-74
2023/11/21 07:14:23;;;;;;;9.87;3.70;;;;;;;-141.23;100.00;62281.09;5018681;28;20072;-71
2023/11/21 07:16:49;;;;;;;6.33;3.63;;;;;;;-141.23;100.00;62281.09;5074876;27;20089;-74
2023/11/21 07:19:15;;;;;;;8.73;4.53;;;;;;;-141.23;100.00;62281.09;5099745;27;20477;-69
2023/11/21 07:21:41;;;;;;;8.60;4.10;;;;;;;-141.23;100.00;62281.09;5083221;27;20046;-74
2023/11/21 07:24:09;;;;;;;16.23;4.07;;;;;;;-141.23;100.00;62281.09;5094039;27;20562;-72
2023/11/21 07:26:35;;;;;;;7.13;3.67;;;;;;;-141.23;100.00;62281.09;5081681;28;20063;-71
2023/11/21 07:29:02;;;;;;;8.20;3.90;;;;;;;-141.23;100.00;62281.09;5078732;28;20040;-72
2023/11/21 07:31:29;;;;;;;11.80;4.33;;;;;;;-141.23;100.00;62281.09;5062322;28;20036;-72
2023/11/21 07:33:58;;;;;;;5.70;3.53;;;;;;;-141.23;100.00;62281.09;5096403;28;20100;-81
2023/11/21 07:36:23;;;;;;;7.77;4.17;;;;;;;-141.23;100.00;62281.09;5080370;27;20055;-70
2023/11/21 07:38:50;;;;;;;7.43;4.20;;;;;;;-141.23;100.00;62281.09;5116887;27;20035;-74
2023/11/21 07:41:17;;;;;;;8.60;4.03;;;;;;;-141.23;100.00;62281.09;5100540;27;20043;-71
2023/11/21 07:43:45;;;;;;;6.57;4.33;;;;;;;-141.23;100.00;62281.09;5117994;27;20038;-72
2023/11/21 07:46:14;;;;;;;5.73;3.57;;;;;;;-141.23;100.00;62281.09;5119868;27;20087;-73
2023/11/21 07:48:42;;;;;;;5.43;3.50;;;;;;;-141.23;100.00;62281.09;5083897;27;20489;-72
2023/11/21 07:51:09;;;;;;;5.90;3.40;;;;;;;-141.23;100.00;62281.09;5134475;27;20041;-70
2023/11/21 07:53:36;;;;;;;5.80;3.60;;;;;;;-141.23;100.00;62281.09;5083909;27;20501;-75
2023/11/21 07:56:07;;;;;;;6.10;3.50;;;;;;;-141.23;100.00;62281.09;5100470;27;20502;-72
2023/11/21 07:58:33;;;;;;;5.28;3.40;;;;;;;-141.23;100.00;62281.09;5083619;27;20509;-73
2023/11/21 08:01:00;;;;;;;5.27;3.57;;;;;;;-141.23;100.00;62281.09;5115763;27;20061;-73
2023/11/21 08:03:26;;;;;;;7.07;3.50;;;;;;;-141.23;100.00;62281.09;5082483;27;20039;-73
2023/11/21 08:05:53;;;;;;;6.77;3.60;;;;;;;-141.23;100.00;62281.09;5099415;27;20082;-75
2023/11/21 08:08:19;;;;;;;6.03;3.23;;;;;;;-141.23;100.00;62281.09;5099103;27;20045;-72
2023/11/21 08:10:55;;;;;;;6.87;3.80;;;;;;;-141.23;100.00;62281.09;5082163;27;20049;-72
2023/11/21 08:13:26;;;;;;;5.67;3.37;;;;;;;-141.23;100.00;62281.09;5067059;27;20050;-75
2023/11/21 08:15:56;;;;;;;5.73;3.80;;;;;;;-141.23;100.00;62281.09;5081900;27;20051;-77
2023/11/21 08:18:22;;;;;;;7.63;3.57;;;;;;;-141.23;100.00;62281.09;5068692;27;20096;-79
2023/11/21 08:20:48;;;;;;;5.77;3.20;;;;;;;-141.23;100.00;62281.09;5064703;27;20050;-75
2023/11/21 08:23:15;;;;;;;5.50;3.50;;;;;;;-141.23;100.00;62281.09;5067672;27;20047;-74
2023/11/21 08:25:45;;;;;;;11.60;3.80;;;;;;;-141.23;100.00;62281.09;5081647;27;20467;-78
2023/11/21 08:28:16;;;;;;;6.13;3.50;;;;;;;-141.23;100.00;62281.09;5081921;27;20051;-74
2023/11/21 08:30:44;;;;;;;5.63;3.13;;;;;;;-141.23;100.00;62281.09;5065326;27;20732;-74
2023/11/21 08:33:14;;;;;;;7.83;3.40;;;;;;;-141.23;100.00;62281.09;5099561;27;20043;-73
2023/11/21 08:35:40;;;;;;;8.50;4.10;;;;;;;-141.23;100.00;62281.09;5100134;27;20096;-74
2023/11/21 08:38:07;;;;;;;5.60;3.40;;;;;;;-141.23;100.00;62281.09;5115962;27;20046;-72
2023/11/21 08:40:35;;;;;;;6.20;3.40;;;;;;;-141.23;100.00;62281.09;5099228;27;20054;-72
2023/11/21 08:43:02;;;;;;;5.67;3.57;;;;;;;-141.23;100.00;62281.09;5098904;27;20042;-72
2023/11/21 08:45:31;;;;;;;8.10;3.80;;;;;;;-141.23;100.00;62281.09;5099628;27;20054;-74
2023/11/21 08:47:57;;;;;;;5.17;2.93;;;;;;;-141.23;100.00;62281.09;5114292;27;20047;-74
2023/11/21 08:50:23;;;;;;;6.03;3.37;;;;;;;-141.23;100.00;62281.09;5111736;28;20077;-75
2023/11/21 08:52:49;;;;;;;8.20;3.20;;;;;;;-141.23;100.00;62281.09;5061081;28;20179;-74
2023/11/21 08:55:15;;;;;;;6.37;3.23;;;;;;;-141.23;100.00;62281.09;5078137;28;20052;-76
2023/11/21 08:57:46;;;;;;;4.63;3.10;;;;;;;-141.23;100.00;62281.09;5078263;28;20077;-74
2023/11/21 09:00:15;;;;;;;5.03;3.20;;;;;;;-141.23;100.00;62281.09;5061711;28;20043;-75
2023/11/21 09:02:42;;;;;;;4.63;3.20;;;;;;;-141.23;100.00;62281.09;5077158;28;20047;-72
2023/11/21 09:05:11;;;;;;;5.17;3.03;;;;;;;-141.23;100.00;62281.09;5060922;28;20051;-80
2023/11/21 09:07:38;;;;;;;4.70;3.17;;;;;;;-141.23;100.00;62281.09;5077858;28;20035;-76
2023/11/21 09:10:07;;;;;;;6.03;3.60;;;;;;;-141.23;100.00;62281.09;5061346;28;20075;-75
2023/11/21 09:12:35;;;;;;;3.87;2.80;;;;;;;-141.23;100.00;62281.09;5036374;28;20080;-77
2023/11/21 09:15:07;;;;;;;5.07;3.50;;;;;;;-141.23;100.00;62281.09;5032465;28;20056;-74
2023/11/21 09:17:34;;;;;;;6.87;3.10;;;;;;;-141.23;100.00;62281.09;5030762;28;20049;-77
2023/11/21 09:20:01;;;;;;;7.23;2.97;;;;;;;-141.23;100.00;62281.09;4981462;28;20041;-75
2023/11/21 09:22:29;;;;;;;8.90;3.10;;;;;;;-141.23;100.00;62281.09;5035084;28;20147;-77
2023/11/21 09:24:57;;;;;;;6.43;3.60;;;;;;;-141.23;100.00;62281.09;5049764;28;20056;-76
2023/11/21 09:27:25;;;;;;;12.87;3.67;;;;;;;-141.23;100.00;62281.09;5051090;28;20101;-78
2023/11/21 09:29:52;;;;;;;6.83;3.37;;;;;;;-141.23;100.00;62281.09;5050869;28;20052;-77
2023/11/21 09:32:21;;;;;;;4.87;3.20;;;;;;;-141.23;100.00;62281.09;5034994;28;20052;-71
2023/11/21 09:34:51;;;;;;;8.77;3.80;;;;;;;-141.23;100.00;62281.09;5068742;28;20127;-72
2023/11/21 09:37:17;;;;;;;9.40;3.13;;;;;;;-141.23;100.00;62281.09;5036624;28;20052;-77
2023/11/21 09:39:44;;;;;;;4.63;3.40;;;;;;;-141.23;100.00;62281.09;5036506;28;20051;-77
2023/11/21 09:42:30;;;;;;;6.20;3.50;;;;;;;-141.23;100.00;62281.09;5052635;28;20032;-79
2023/11/21 09:45:19;;;;;;;12.47;3.60;;;;;;;-141.23;100.00;62281.09;5113128;27;20076;-77
2023/11/21 09:47:46;;;;;;;4.83;3.10;;;;;;;-141.23;100.00;62281.09;5128121;27;20058;-77
2023/11/21 09:50:17;;;;;;;6.20;3.30;;;;;;;-141.23;100.00;62281.09;5101204;27;20053;-78
2023/11/21 09:52:57;;;;;;;10.80;3.63;;;;;;;-141.23;100.00;62281.09;5101289;27;20462;-78
2023/11/21 09:55:26;;;;;;;3.80;3.10;;;;;;;-141.23;100.00;62281.09;5032718;28;20468;-78
2023/11/21 09:57:54;;;;;;;6.73;3.30;;;;;;;-141.23;100.00;62281.09;5011534;28;20095;-73
2023/11/21 10:00:23;;;;;;;5.60;3.60;;;;;;;-141.23;100.00;62281.09;5028261;28;20055;-73
2023/11/21 10:02:51;;;;;;;7.65;4.35;;;;;;;-141.23;100.00;62281.09;5028461;28;20044;-77
2023/11/21 10:05:22;;;;;;;6.87;3.83;;;;;;;-141.23;100.00;62281.09;5045012;28;20050;-78
2023/11/21 10:07:50;;;;;;;6.93;4.03;;;;;;;-141.23;100.00;62281.09;5036276;28;20055;-76
2023/11/21 10:10:19;;;;;;;9.93;3.77;;;;;;;-141.23;100.00;62281.09;5036801;28;20059;-77
2023/11/21 10:12:53;;;;;;;5.73;3.70;;;;;;;-141.23;100.00;62281.09;5053185;28;20124;-77
2023/11/21 10:15:24;;;;;;;6.30;3.87;;;;;;;-141.23;100.00;62281.09;5036952;28;20059;-77
2023/11/21 10:17:53;;;;;;;5.67;3.63;;;;;;;-141.23;100.00;62281.09;5036591;28;20040;-73
2023/11/21 10:20:20;;;;;;;6.40;3.87;;;;;;;-141.23;100.00;62281.09;5044550;28;20059;-78
2023/11/21 10:22:46;;;;;;;4.93;3.33;;;;;;;-141.23;100.00;62281.09;5008686;28;20041;-77
2023/11/21 10:25:18;;;;;;;5.20;3.63;;;;;;;-141.23;100.00;62281.09;5005564;28;20063;-75
2023/11/21 10:27:47;;;;;;;6.20;4.00;;;;;;;-141.23;100.00;62281.09;5050334;28;20085;-78
2023/11/21 10:30:15;;;;;;;7.53;4.10;;;;;;;-141.23;100.00;62281.09;5039793;28;20491;-79
2023/11/21 10:32:43;;;;;;;4.83;3.50;;;;;;;-141.23;100.00;62281.09;5048824;28;20052;-76
2023/11/21 10:35:12;;;;;;;8.43;4.00;;;;;;;-141.23;100.00;62281.09;5076410;28;20051;-76
2023/11/21 10:37:45;;;;;;;5.80;3.90;;;;;;;-141.23;100.00;62281.09;5076906;28;20078;-75
2023/11/21 10:40:11;;;;;;;4.83;3.87;;;;;;;-141.23;100.00;62281.09;5074064;28;20610;-77
2023/11/21 10:42:39;;;;;;;5.13;3.47;;;;;;;-141.23;100.00;62281.09;5074118;28;20066;-75
2023/11/21 10:45:14;;;;;;;5.70;3.70;;;;;;;-141.23;100.00;62281.09;5055807;28;20059;-77
2023/11/21 10:47:41;;;;;;;6.87;3.73;;;;;;;-141.23;100.00;62281.09;5083368;28;20130;-76
2023/11/21 10:50:11;;;;;;;12.00;3.70;;;;;;;-141.23;100.00;62281.09;5032118;28;20054;-74
2023/11/21 10:52:46;;;;;;;9.38;3.97;;;;;;;-141.23;100.00;62281.09;5062825;28;20047;-72
2023/11/21 10:55:21;;;;;;;5.73;3.33;;;;;;;-141.23;100.00;62281.09;5098709;27;20054;-77
2023/11/21 10:57:49;;;;;;;6.60;3.40;;;;;;;-141.23;100.00;62281.09;5098267;27;20063;-71
2023/11/21 11:00:19;;;;;;;6.70;3.37;;;;;;;-141.23;100.00;62281.09;5117201;27;20057;-74
2023/11/21 11:02:51;;;;;;;4.97;3.10;;;;;;;-141.23;100.00;62281.09;5100386;27;20035;-72
2023/11/21 11:05:19;;;;;;;7.63;3.60;;;;;;;-141.23;100.00;62281.09;5095041;27;20084;-67
2023/11/21 11:07:48;;;;;;;4.70;3.40;;;;;;;-141.23;100.00;62281.09;5059185;28;20052;-66
2023/11/21 11:10:16;;;;;;;8.20;3.60;;;;;;;-141.23;100.00;62281.09;5087793;28;20056;-67
2023/11/21 11:12:43;;;;;;;4.13;2.90;;;;;;;-141.23;100.00;62281.09;5070864;28;20055;-66